Time;durP1;ratioP1;P1;durP2;ratioP2;P2;SDS_P1;SDS_P2;PMS_P1;PMS_P2;Temp;Humidity;BMP_temperature;BMP_pressure;BME280_temperature;BME280_humidity;BME280_pressure;Samples;Min_cycle;Max_cycle;Signal;HPM_P1;HPM_P2
2024/01/22 00:01:43;;;;;;;24.20;12.10;;;;;;;2.25;69.11;101483.81;104915;1259;71755;-70
2024/01/22 00:04:09;;;;;;;22.70;12.10;;;;;;;2.25;69.20;101491.06;104864;1257;137919;-67
2024/01/22 00:06:37;;;;;;;21.50;11.40;;;;;;;2.26;69.21;101492.18;107451;1256;60084;-68
2024/01/22 00:09:05;;;;;;;21.90;11.80;;;;;;;2.27;69.21;101488.74;105033;1259;74907;-69
2024/01/22 00:11:32;;;;;;;24.10;12.50;;;;;;;2.27;69.29;101487.52;105776;1259;138023;-69
2024/01/22 00:13:59;;;;;;;23.30;12.50;;;;;;;2.28;69.37;101496.98;104932;1254;71725;-68
2024/01/22 00:16:26;;;;;;;22.20;10.90;;;;;;;2.30;69.33;101484.64;105101;1259;138009;-68
2024/01/22 00:18:53;;;;;;;21.80;10.70;;;;;;;2.30;69.35;101473.94;109075;1256;61027;-62
2024/01/22 00:21:20;;;;;;;21.20;11.20;;;;;;;2.31;69.10;101462.58;109076;1258;74683;-62
2024/01/22 00:23:46;;;;;;;21.40;11.50;;;;;;;2.27;69.11;101457.45;108949;1256;137667;-62
2024/01/22 00:26:14;;;;;;;24.10;12.00;;;;;;;2.29;69.09;101477.84;108929;1254;74324;-63
2024/01/22 00:28:41;;;;;;;22.20;11.90;;;;;;;2.30;69.10;101487.24;108960;1256;138275;-62
2024/01/22 00:31:08;;;;;;;23.00;11.90;;;;;;;2.32;69.02;101483.89;106798;1254;61244;-69
2024/01/22 00:33:35;;;;;;;21.20;11.70;;;;;;;2.33;68.99;101487.48;104979;1256;74787;-69
2024/01/22 00:36:05;;;;;;;23.80;12.20;;;;;;;2.35;69.03;101483.45;104795;1255;137685;-69
2024/01/22 00:38:31;;;;;;;24.90;12.60;;;;;;;2.37;68.77;101470.02;104890;1259;72186;-70
2024/01/22 00:40:58;;;;;;;23.00;12.20;;;;;;;2.38;68.91;101458.70;104865;1259;138757;-70
2024/01/22 00:43:25;;;;;;;24.30;12.70;;;;;;;2.37;68.67;101448.60;104932;1257;61248;-69
2024/01/22 00:45:52;;;;;;;21.20;12.50;;;;;;;2.34;68.59;101427.23;104887;1259;73650;-68
2024/01/22 00:48:18;;;;;;;20.50;11.40;;;;;;;2.28;68.51;101423.02;104897;1259;137973;-68
2024/01/22 00:50:45;;;;;;;22.10;12.40;;;;;;;2.23;68.72;101435.48;104975;1258;72017;-68
2024/01/22 00:53:11;;;;;;;28.40;13.10;;;;;;;2.18;68.64;101458.88;104846;1259;137856;-68
2024/01/22 00:55:39;;;;;;;28.40;13.70;;;;;;;2.14;68.59;101463.11;105054;1259;61241;-69
2024/01/22 00:58:05;;;;;;;24.00;13.40;;;;;;;2.09;68.58;101451.01;104996;1257;74260;-68
2024/01/22 01:00:32;;;;;;;23.20;12.10;;;;;;;2.08;68.59;101441.89;105078;1258;67369;-69
2024/01/22 01:02:59;;;;;;;23.10;12.00;;;;;;;2.05;68.63;101434.09;104988;1259;73345;-70
2024/01/22 01:05:26;;;;;;;23.50;12.00;;;;;;;2.04;68.52;101430.75;104714;1257;137984;-70
2024/01/22 01:07:52;;;;;;;23.80;11.50;;;;;;;2.02;68.58;101429.73;104887;1257;60646;-71
2024/01/22 01:10:19;;;;;;;25.60;12.80;;;;;;;2.03;68.57;101423.89;104822;1258;138326;-70
2024/01/22 01:12:46;;;;;;;22.40;12.10;;;;;;;2.03;68.57;101416.14;104917;1257;66847;-68
2024/01/22 01:15:12;;;;;;;24.40;12.20;;;;;;;2.04;68.77;101421.73;104909;1257;72047;-69
2024/01/22 01:17:39;;;;;;;22.30;12.00;;;;;;;2.05;68.46;101416.77;104827;1257;138245;-68
2024/01/22 01:20:06;;;;;;;23.20;11.90;;;;;;;2.00;68.49;101406.39;105019;1257;61282;-70
2024/01/22 01:22:33;;;;;;;24.10;11.70;;;;;;;1.99;68.52;101399.23;108976;1256;138250;-69
2024/01/22 01:24:59;;;;;;;23.70;11.70;;;;;;;2.00;68.51;101396.99;109098;1254;64996;-62
2024/01/22 01:27:26;;;;;;;22.00;11.90;;;;;;;2.00;68.32;101395.27;108704;1255;73405;-61
2024/01/22 01:29:53;;;;;;;19.80;12.10;;;;;;;2.00;68.29;101396.70;104765;1259;137867;-60
2024/01/22 01:32:20;;;;;;;19.70;11.70;;;;;;;2.02;68.34;101400.27;104963;1259;61218;-68
2024/01/22 01:34:46;;;;;;;22.40;11.50;;;;;;;2.01;68.23;101396.77;104874;1256;138013;-68
2024/01/22 01:37:13;;;;;;;22.30;12.60;;;;;;;2.03;68.23;101395.37;104846;1260;65598;-68
2024/01/22 01:39:39;;;;;;;20.40;11.50;;;;;;;2.05;68.25;101399.94;104960;1256;73168;-67
2024/01/22 01:42:06;;;;;;;20.10;11.30;;;;;;;2.06;68.34;101395.02;104834;1257;138567;-68
2024/01/22 01:44:39;;;;;;;21.20;11.90;;;;;;;2.05;67.93;101392.21;104664;1259;61573;-67
2024/01/22 01:47:06;;;;;;;21.60;11.90;;;;;;;2.04;68.10;101380.86;104804;1255;137943;-67
2024/01/22 01:49:33;;;;;;;20.90;11.90;;;;;;;2.03;68.00;101375.06;104829;1257;66930;-68
2024/01/22 01:51:59;;;;;;;19.90;11.20;;;;;;;2.03;68.09;101365.88;104924;1259;75390;-68
2024/01/22 01:54:26;;;;;;;18.60;10.60;;;;;;;2.04;67.97;101359.05;104545;1259;138089;-68
2024/01/22 01:56:53;;;;;;;21.10;10.20;;;;;;;2.03;67.98;101352.05;104928;1259;61270;-69
2024/01/22 01:59:20;;;;;;;19.80;11.00;;;;;;;2.01;67.83;101344.49;104607;1257;138217;-61
2024/01/22 02:01:46;;;;;;;20.50;10.50;;;;;;;2.00;67.77;101342.54;104728;1261;67052;-61
2024/01/22 02:04:13;;;;;;;20.80;11.30;;;;;;;2.00;67.80;101348.39;104899;1254;138522;-61
2024/01/22 02:06:40;;;;;;;21.20;12.10;;;;;;;1.98;67.59;101347.74;104882;1260;61347;-60
2024/01/22 02:09:07;;;;;;;20.30;10.70;;;;;;;1.96;67.76;101342.54;104864;1257;61272;-68
2024/01/22 02:11:33;;;;;;;20.10;11.40;;;;;;;1.97;67.56;101338.11;104790;1257;137786;-60
2024/01/22 02:14:00;;;;;;;18.30;10.00;;;;;;;1.95;67.68;101330.34;104918;1257;64366;-68
2024/01/22 02:16:27;;;;;;;24.50;11.40;;;;;;;1.90;67.43;101315.67;104753;1257;138594;-68
2024/01/22 02:18:53;;;;;;;19.50;10.70;;;;;;;1.84;67.41;101317.85;104692;1262;61369;-61
2024/01/22 02:21:20;;;;;;;20.00;10.90;;;;;;;1.82;67.51;101312.14;104970;1259;61455;-61
2024/01/22 02:23:47;;;;;;;20.90;11.00;;;;;;;1.79;67.47;101304.17;104745;1259;138607;-61
2024/01/22 02:26:13;;;;;;;19.70;11.20;;;;;;;1.78;67.49;101288.15;104816;1260;66520;-62
2024/01/22 02:28:40;;;;;;;21.80;11.30;;;;;;;1.73;67.28;101287.02;104698;1259;138047;-69
2024/01/22 02:31:08;;;;;;;22.30;10.60;;;;;;;1.68;67.27;101293.09;104991;1254;61230;-70
2024/01/22 02:33:35;;;;;;;23.70;12.20;;;;;;;1.66;67.29;101311.75;104939;1260;61238;-69
2024/01/22 02:36:01;;;;;;;19.10;11.10;;;;;;;1.63;67.26;101315.22;104825;1259;137800;-70
2024/01/22 02:38:28;;;;;;;18.30;10.10;;;;;;;1.61;67.44;101311.40;104877;1257;66165;-69
2024/01/22 02:40:55;;;;;;;20.50;11.60;;;;;;;1.60;67.49;101311.14;104814;1254;138375;-61
2024/01/22 02:43:21;;;;;;;20.00;11.50;;;;;;;1.59;67.48;101308.84;104812;1260;61247;-61
2024/01/22 02:45:49;;;;;;;21.50;11.70;;;;;;;1.60;67.58;101304.42;104984;1258;61136;-61
2024/01/22 02:48:15;;;;;;;20.60;11.40;;;;;;;1.61;67.56;101293.23;104791;1260;137852;-60
2024/01/22 02:50:42;;;;;;;19.80;10.90;;;;;;;1.60;67.61;101271.55;104943;1255;65809;-69
2024/01/22 02:53:09;;;;;;;21.10;11.10;;;;;;;1.61;67.54;101253.28;104818;1266;138327;-68
2024/01/22 02:55:35;;;;;;;20.90;10.60;;;;;;;1.62;67.52;101268.77;104605;1257;61227;-69
2024/01/22 02:58:02;;;;;;;20.70;10.80;;;;;;;1.63;67.50;101269.86;105031;1254;61112;-69
2024/01/22 03:00:29;;;;;;;23.70;11.50;;;;;;;1.62;67.52;101270.31;104814;1257;138232;-60
2024/01/22 03:02:55;;;;;;;18.20;10.30;;;;;;;1.64;67.54;101262.65;104781;1258;64809;-61
2024/01/22 03:05:23;;;;;;;18.40;10.80;;;;;;;1.63;67.60;101262.46;104803;1260;138080;-61
2024/01/22 03:07:49;;;;;;;23.50;12.30;;;;;;;1.63;67.63;101256.73;105016;1260;61144;-67
2024/01/22 03:10:16;;;;;;;20.00;12.20;;;;;;;1.64;67.55;101243.85;104797;1260;138186;-60
2024/01/22 03:12:43;;;;;;;21.90;12.50;;;;;;;1.66;67.58;101241.20;104677;1262;75282;-62
2024/01/22 03:15:10;;;;;;;23.60;12.00;;;;;;;1.68;67.63;101226.95;104760;1261;66475;-61
2024/01/22 03:17:36;;;;;;;20.50;11.40;;;;;;;1.68;67.66;101225.43;104477;1259;137782;-69
2024/01/22 03:20:03;;;;;;;17.80;10.80;;;;;;;1.68;67.74;101215.91;104622;1259;61368;-60
2024/01/22 03:22:30;;;;;;;22.80;10.70;;;;;;;1.69;67.66;101213.52;108197;1256;138472;-70
2024/01/22 03:24:57;;;;;;;20.00;10.50;;;;;;;1.70;67.77;101201.48;104943;1261;75273;-69
2024/01/22 03:27:23;;;;;;;16.10;10.20;;;;;;;1.73;67.79;101194.95;104679;1260;66495;-61
2024/01/22 03:29:50;;;;;;;15.50;10.00;;;;;;;1.76;67.90;101191.52;104679;1257;137786;-61
2024/01/22 03:32:16;;;;;;;19.20;10.70;;;;;;;1.78;67.76;101188.69;104685;1266;61350;-61
2024/01/22 03:34:43;;;;;;;16.90;10.40;;;;;;;1.78;67.85;101185.43;104676;1262;138241;-61
2024/01/22 03:37:10;;;;;;;18.30;10.60;;;;;;;1.81;67.95;101177.45;104767;1257;74651;-61
2024/01/22 03:39:36;;;;;;;18.50;10.50;;;;;;;1.82;67.85;101166.48;104679;1262;67246;-61
2024/01/22 03:42:04;;;;;;;17.50;9.90;;;;;;;1.83;67.77;101155.28;104670;1263;138299;-62
2024/01/22 03:44:30;;;;;;;16.60;9.70;;;;;;;1.85;67.99;101146.99;104862;1263;61234;-61
2024/01/22 03:46:57;;;;;;;18.00;10.60;;;;;;;1.87;67.92;101140.16;104584;1262;138958;-62
2024/01/22 03:49:24;;;;;;;21.00;10.40;;;;;;;1.90;67.92;101137.77;104822;1257;74154;-61
2024/01/22 03:51:50;;;;;;;16.60;10.40;;;;;;;1.90;67.94;101131.52;104710;1260;65832;-61
2024/01/22 03:54:17;;;;;;;18.60;10.20;;;;;;;1.90;67.88;101128.61;104556;1260;137749;-61
2024/01/22 03:56:44;;;;;;;18.00;9.30;;;;;;;1.91;67.95;101119.83;104722;1262;61302;-61
2024/01/22 03:59:11;;;;;;;18.30;10.50;;;;;;;1.92;68.01;101121.13;104699;1260;138850;-60
2024/01/22 04:01:37;;;;;;;17.50;10.20;;;;;;;1.93;68.02;101117.20;104840;1262;75860;-60
2024/01/22 04:04:04;;;;;;;15.40;9.50;;;;;;;1.94;68.20;101116.91;104740;1262;65499;-60
2024/01/22 04:06:31;;;;;;;15.50;8.80;;;;;;;1.93;67.98;101106.30;104688;1260;137299;-61
2024/01/22 04:08:57;;;;;;;18.50;10.30;;;;;;;1.93;68.13;101098.00;104795;1260;61177;-61
2024/01/22 04:11:24;;;;;;;17.20;10.30;;;;;;;1.93;68.17;101090.39;104676;1262;139031;-60
2024/01/22 04:13:50;;;;;;;17.70;10.50;;;;;;;1.94;68.18;101076.43;105041;1260;73658;-62
2024/01/22 04:16:17;;;;;;;17.00;10.10;;;;;;;1.96;68.12;101068.91;104805;1260;142939;-62
2024/01/22 04:18:44;;;;;;;18.70;10.50;;;;;;;1.97;68.31;101063.40;104983;1257;73588;-62
2024/01/22 04:21:10;;;;;;;18.70;10.90;;;;;;;1.99;68.34;101062.86;105011;1259;61512;-62
2024/01/22 04:23:37;;;;;;;17.60;10.90;;;;;;;2.01;68.39;101055.73;108939;1259;137911;-60
2024/01/22 04:26:04;;;;;;;17.50;10.80;;;;;;;2.02;68.30;101046.46;109059;1255;74560;-68
2024/01/22 04:28:31;;;;;;;21.60;10.70;;;;;;;2.04;68.36;101051.98;108781;1264;138678;-67
2024/01/22 04:30:58;;;;;;;19.70;10.50;;;;;;;2.07;68.39;101056.16;106181;1260;71322;-68
2024/01/22 04:33:24;;;;;;;20.00;10.20;;;;;;;2.09;68.27;101052.45;104984;1267;61879;-68
2024/01/22 04:35:51;;;;;;;19.40;10.50;;;;;;;2.10;68.43;101052.36;104598;1260;138794;-67
2024/01/22 04:38:18;;;;;;;18.00;11.10;;;;;;;2.11;68.27;101047.59;104953;1254;76826;-68
2024/01/22 04:40:45;;;;;;;19.40;10.40;;;;;;;2.14;68.48;101048.09;104801;1255;138701;-67
2024/01/22 04:43:11;;;;;;;20.40;11.40;;;;;;;2.17;68.56;101039.80;104900;1258;73776;-67
2024/01/22 04:45:38;;;;;;;19.60;10.90;;;;;;;2.19;68.48;101048.04;104896;1260;61320;-61
2024/01/22 04:48:05;;;;;;;19.40;11.10;;;;;;;2.21;68.48;101042.95;104692;1258;138950;-69
2024/01/22 04:50:32;;;;;;;18.80;10.70;;;;;;;2.21;68.48;101033.30;107999;1257;76087;-68
2024/01/22 04:52:58;;;;;;;18.70;10.60;;;;;;;2.23;68.53;101024.73;104878;1263;138060;-61
2024/01/22 04:55:25;;;;;;;16.80;10.50;;;;;;;2.23;68.54;101013.16;104957;1259;72530;-60
2024/01/22 04:57:52;;;;;;;20.70;11.60;;;;;;;2.24;68.68;101000.08;104769;1260;61359;-60
2024/01/22 05:00:19;;;;;;;23.70;12.00;;;;;;;2.25;68.70;100982.64;104720;1254;138372;-68
2024/01/22 05:02:46;;;;;;;19.30;11.10;;;;;;;2.25;68.88;100971.59;105112;1259;75163;-69
2024/01/22 05:05:13;;;;;;;15.70;10.90;;;;;;;2.28;68.64;101006.90;104769;1257;138082;-69
2024/01/22 05:07:39;;;;;;;17.20;10.20;;;;;;;2.28;68.72;101002.92;104984;1260;73072;-68
2024/01/22 05:10:13;;;;;;;18.50;11.00;;;;;;;2.28;68.81;100981.09;104898;1262;61452;-68
2024/01/22 05:12:40;;;;;;;19.20;11.00;;;;;;;2.29;68.94;100965.23;104803;1254;61251;-68
2024/01/22 05:15:07;;;;;;;24.30;12.10;;;;;;;2.30;68.86;100963.04;104873;1258;75312;-68
2024/01/22 05:17:34;;;;;;;25.00;13.70;;;;;;;2.31;68.96;100958.94;108552;1254;137894;-68
2024/01/22 05:20:00;;;;;;;19.30;12.20;;;;;;;2.33;68.98;100960.61;104906;1258;73351;-69
2024/01/22 05:22:27;;;;;;;20.70;12.60;;;;;;;2.32;68.81;100967.66;104922;1268;138135;-67
2024/01/22 05:24:54;;;;;;;21.20;12.20;;;;;;;2.33;68.86;100962.18;104837;1257;61327;-68
2024/01/22 05:27:21;;;;;;;21.50;12.80;;;;;;;2.34;68.89;100961.89;104978;1261;73702;-70
2024/01/22 05:29:47;;;;;;;21.00;11.50;;;;;;;2.36;68.96;100977.77;104906;1261;138941;-68
2024/01/22 05:32:14;;;;;;;27.70;14.90;;;;;;;2.37;69.03;100977.50;105006;1259;73362;-69
2024/01/22 05:34:41;;;;;;;23.00;12.90;;;;;;;2.39;69.04;100959.92;104934;1259;139036;-68
2024/01/22 05:37:07;;;;;;;21.90;13.00;;;;;;;2.40;68.99;100960.03;104947;1260;61250;-68
2024/01/22 05:39:34;;;;;;;21.70;12.20;;;;;;;2.44;69.11;100958.32;104982;1261;74316;-68
2024/01/22 05:42:01;;;;;;;26.50;14.40;;;;;;;2.46;69.00;100947.52;104859;1258;137821;-64
2024/01/22 05:44:28;;;;;;;20.60;12.40;;;;;;;2.47;69.09;100937.75;104965;1257;73260;-64
2024/01/22 05:46:54;;;;;;;21.10;11.80;;;;;;;2.48;69.10;100913.05;104774;1259;137996;-66
2024/01/22 05:49:21;;;;;;;24.60;11.60;;;;;;;2.50;69.17;100892.20;104990;1256;61354;-65
2024/01/22 05:51:48;;;;;;;26.10;14.00;;;;;;;2.53;69.09;100896.40;105312;1255;74773;-65
2024/01/22 05:54:15;;;;;;;24.60;13.60;;;;;;;2.56;69.12;100897.05;104984;1260;138601;-66
2024/01/22 05:56:41;;;;;;;25.90;14.20;;;;;;;2.58;69.16;100887.95;104554;1257;72239;-60
2024/01/22 05:59:08;;;;;;;24.40;12.70;;;;;;;2.58;69.19;100883.86;104897;1259;138228;-65
2024/01/22 06:01:35;;;;;;;24.40;13.50;;;;;;;2.59;69.10;100880.25;104927;1259;61630;-65
2024/01/22 06:04:04;;;;;;;24.70;14.10;;;;;;;2.59;69.12;100875.44;104885;1259;74192;-67
2024/01/22 06:06:30;;;;;;;20.20;11.70;;;;;;;2.62;69.10;100874.16;104839;1260;137567;-65
2024/01/22 06:08:57;;;;;;;24.50;13.00;;;;;;;2.62;69.10;100857.05;104957;1260;73498;-66
2024/01/22 06:11:26;;;;;;;24.80;13.40;;;;;;;2.63;69.28;100851.75;104972;1257;138242;-66
2024/01/22 06:13:52;;;;;;;22.00;12.30;;;;;;;2.63;69.10;100834.59;105093;1258;61399;-65
2024/01/22 06:16:20;;;;;;;19.10;11.50;;;;;;;2.64;69.20;100831.68;104829;1255;139328;-65
2024/01/22 06:18:48;;;;;;;21.00;11.60;;;;;;;2.65;69.27;100828.96;104977;1255;65458;-63
2024/01/22 06:21:14;;;;;;;21.60;11.70;;;;;;;2.66;69.32;100826.29;105005;1260;73061;-64
2024/01/22 06:23:42;;;;;;;19.50;11.80;;;;;;;2.69;69.30;100816.71;104785;1260;137884;-64
2024/01/22 06:26:09;;;;;;;29.10;15.10;;;;;;;2.72;69.31;100788.82;105105;1256;61321;-66
2024/01/22 06:28:35;;;;;;;20.60;12.10;;;;;;;2.73;69.26;100793.95;104835;1260;138717;-66
2024/01/22 06:31:03;;;;;;;23.40;12.30;;;;;;;2.75;69.30;100795.41;104089;1254;65651;-64
2024/01/22 06:33:29;;;;;;;20.90;11.00;;;;;;;2.76;69.29;100798.23;104294;1254;72265;-64
2024/01/22 06:35:56;;;;;;;22.80;12.30;;;;;;;2.77;69.28;100791.70;104858;1261;138306;-68
2024/01/22 06:38:25;;;;;;;20.90;11.40;;;;;;;2.77;69.29;100802.80;104779;1254;61433;-69
2024/01/22 06:40:52;;;;;;;19.90;11.60;;;;;;;2.79;69.40;100809.48;104618;1254;138703;-69
2024/01/22 06:43:19;;;;;;;19.90;11.40;;;;;;;2.80;69.47;100820.49;104954;1259;66714;-69
2024/01/22 06:45:46;;;;;;;18.30;10.70;;;;;;;2.82;69.44;100815.38;104778;1260;73973;-70
2024/01/22 06:48:12;;;;;;;19.90;10.50;;;;;;;2.83;69.48;100810.92;104958;1260;138622;-69
2024/01/22 06:50:39;;;;;;;18.80;9.90;;;;;;;2.83;69.39;100803.85;105011;1260;61253;-71
2024/01/22 06:53:06;;;;;;;22.20;10.80;;;;;;;2.84;69.55;100787.98;104949;1254;138674;-69
2024/01/22 06:55:33;;;;;;;15.20;9.90;;;;;;;2.86;69.56;100784.98;104775;1261;67492;-70
2024/01/22 06:57:59;;;;;;;14.40;8.40;;;;;;;2.87;69.61;100783.81;104938;1259;71863;-69
2024/01/22 07:00:26;;;;;;;15.00;9.90;;;;;;;2.88;69.61;100775.38;104910;1258;137381;-70
2024/01/22 07:02:54;;;;;;;16.50;10.20;;;;;;;2.91;69.52;100768.94;109021;1257;61465;-70
2024/01/22 07:05:20;;;;;;;16.40;9.50;;;;;;;2.94;69.63;100753.68;108973;1257;137997;-70
2024/01/22 07:07:47;;;;;;;16.90;9.60;;;;;;;2.99;69.70;100743.34;109113;1256;65571;-70
2024/01/22 07:10:14;;;;;;;20.50;9.90;;;;;;;3.01;69.63;100741.89;109054;1254;138481;-69
2024/01/22 07:12:41;;;;;;;16.00;9.70;;;;;;;3.03;69.68;100745.70;109144;1254;59651;-70
2024/01/22 07:15:12;;;;;;;14.90;9.30;;;;;;;3.07;69.63;100745.04;109160;1254;60666;-70
2024/01/22 07:17:40;;;;;;;15.50;8.80;;;;;;;3.09;69.59;100734.90;109078;1255;137981;-69
2024/01/22 07:20:14;;;;;;;14.30;8.90;;;;;;;3.12;69.67;100727.08;109115;1258;67319;-69
2024/01/22 07:22:43;;;;;;;17.70;11.20;;;;;;;3.15;69.67;100734.89;109028;1254;139093;-69
2024/01/22 07:25:10;;;;;;;15.50;11.20;;;;;;;3.18;69.70;100726.71;109231;1254;59228;-69
2024/01/22 07:27:39;;;;;;;15.70;10.10;;;;;;;3.22;69.72;100715.11;109182;1254;59366;-69
2024/01/22 07:30:08;;;;;;;16.60;9.40;;;;;;;3.26;69.84;100713.48;109084;1254;138408;-69
2024/01/22 07:32:41;;;;;;;14.00;8.90;;;;;;;3.30;69.82;100703.27;109050;1254;66590;-69
2024/01/22 07:35:09;;;;;;;15.20;9.70;;;;;;;3.34;69.71;100695.30;109101;1254;138267;-60
2024/01/22 07:37:37;;;;;;;15.00;9.40;;;;;;;3.38;69.76;100692.39;109182;1254;63281;-60
2024/01/22 07:40:05;;;;;;;13.80;8.60;;;;;;;3.42;69.79;100682.23;105476;1254;61243;-60
2024/01/22 07:42:33;;;;;;;13.50;8.20;;;;;;;3.44;69.70;100677.47;109087;1254;138179;-70
2024/01/22 07:45:01;;;;;;;15.10;8.70;;;;;;;3.46;69.72;100679.83;109207;1254;66006;-70
2024/01/22 07:47:27;;;;;;;15.30;7.80;;;;;;;3.52;69.81;100680.11;108859;1257;138614;-70
2024/01/22 07:49:54;;;;;;;14.90;8.60;;;;;;;3.55;69.79;100683.60;108941;1256;59358;-70
2024/01/22 07:52:21;;;;;;;11.60;7.70;;;;;;;3.58;69.73;100674.02;109024;1257;138425;-69
2024/01/22 07:54:51;;;;;;;12.10;7.40;;;;;;;3.59;69.65;100668.98;108956;1254;73862;-70
2024/01/22 07:57:17;;;;;;;12.20;7.50;;;;;;;3.61;69.71;100667.94;109196;1254;66028;-70
2024/01/22 07:59:44;;;;;;;14.70;7.50;;;;;;;3.65;69.68;100661.73;108973;1256;138606;-70
2024/01/22 08:02:11;;;;;;;10.70;6.70;;;;;;;3.67;69.69;100644.11;109155;1254;59310;-60
2024/01/22 08:04:39;;;;;;;12.30;7.50;;;;;;;3.72;69.60;100633.06;109094;1255;138971;-60
2024/01/22 08:07:06;;;;;;;13.40;8.10;;;;;;;3.76;69.70;100621.83;107783;1256;75693;-60
2024/01/22 08:09:34;;;;;;;11.90;7.60;;;;;;;3.79;69.60;100630.67;104859;1260;67240;-59
2024/01/22 08:12:00;;;;;;;14.80;8.10;;;;;;;3.82;69.55;100649.36;104949;1258;137669;-62
2024/01/22 08:14:27;;;;;;;15.20;8.40;;;;;;;3.81;69.47;100648.82;105149;1254;60335;-60
2024/01/22 08:16:55;;;;;;;12.20;7.60;;;;;;;3.83;69.50;100646.84;104902;1259;137826;-61
2024/01/22 08:19:21;;;;;;;14.10;7.30;;;;;;;3.85;69.53;100638.95;105066;1258;75215;-59
2024/01/22 08:21:49;;;;;;;15.00;8.00;;;;;;;3.85;69.47;100625.59;105015;1259;66658;-60
2024/01/22 08:24:16;;;;;;;13.00;7.50;;;;;;;3.86;69.59;100627.88;108824;1254;137717;-60
2024/01/22 08:26:43;;;;;;;12.20;7.50;;;;;;;3.86;69.53;100631.20;109148;1254;59099;-69
2024/01/22 08:29:10;;;;;;;12.60;8.20;;;;;;;3.85;69.52;100612.58;109107;1254;137908;-69
2024/01/22 08:31:38;;;;;;;16.10;8.60;;;;;;;3.87;69.50;100613.88;109191;1259;74367;-69
2024/01/22 08:34:05;;;;;;;19.20;11.70;;;;;;;3.91;69.54;100602.10;109190;1258;66877;-70
2024/01/22 08:36:31;;;;;;;13.20;8.30;;;;;;;3.94;69.54;100595.98;109076;1254;138268;-70
2024/01/22 08:38:58;;;;;;;11.00;7.50;;;;;;;3.96;69.50;100591.21;109187;1254;59153;-70
2024/01/22 08:41:27;;;;;;;13.50;8.00;;;;;;;3.98;69.43;100586.08;109104;1254;137973;-70
2024/01/22 08:43:54;;;;;;;12.20;7.60;;;;;;;3.97;69.53;100581.75;109166;1254;74712;-71
2024/01/22 08:46:21;;;;;;;12.30;7.50;;;;;;;4.00;69.66;100569.71;108885;1254;139513;-70
2024/01/22 08:48:48;;;;;;;10.50;6.80;;;;;;;4.02;69.70;100557.66;109170;1254;72353;-61
2024/01/22 08:51:15;;;;;;;11.80;7.20;;;;;;;4.04;69.62;100561.05;109168;1254;59135;-61
2024/01/22 08:53:42;;;;;;;10.40;7.90;;;;;;;4.07;69.71;100559.48;109067;1254;137761;-61
2024/01/22 08:56:08;;;;;;;11.70;7.30;;;;;;;4.10;69.73;100543.48;109202;1254;74586;-61
2024/01/22 08:58:35;;;;;;;14.10;7.80;;;;;;;4.12;69.75;100532.41;109088;1254;139009;-61
2024/01/22 09:01:05;;;;;;;12.30;7.00;;;;;;;4.12;69.81;100539.05;106010;1257;73696;-60
2024/01/22 09:03:32;;;;;;;10.20;7.00;;;;;;;4.12;69.91;100549.45;109143;1254;58969;-61
2024/01/22 09:06:00;;;;;;;11.60;7.60;;;;;;;4.14;70.02;100541.73;109114;1254;138990;-62
2024/01/22 09:08:26;;;;;;;11.40;7.40;;;;;;;4.15;70.12;100535.86;109217;1254;74069;-61
2024/01/22 09:10:53;;;;;;;10.20;7.20;;;;;;;4.14;70.14;100532.02;107210;1256;137689;-61
2024/01/22 09:13:20;;;;;;;12.50;7.40;;;;;;;4.12;70.07;100551.90;104844;1260;72709;-60
2024/01/22 09:15:47;;;;;;;13.10;7.20;;;;;;;4.09;70.36;100569.09;105024;1257;61230;-60
2024/01/22 09:18:14;;;;;;;11.00;7.20;;;;;;;4.07;71.06;100563.66;104949;1263;138469;-60
2024/01/22 09:20:41;;;;;;;15.50;8.70;;;;;;;4.02;71.11;100562.88;109150;1254;73502;-60
2024/01/22 09:23:07;;;;;;;15.20;9.30;;;;;;;3.97;71.08;100560.02;108945;1254;177361;-62
2024/01/22 09:25:34;;;;;;;14.40;9.20;;;;;;;3.92;71.35;100556.13;109211;1254;70401;-61
2024/01/22 09:28:02;;;;;;;19.00;12.90;;;;;;;3.89;71.40;100549.06;107363;1259;59152;-61
2024/01/22 09:30:28;;;;;;;22.80;14.20;;;;;;;3.85;71.47;100541.90;104864;1259;137720;-60
2024/01/22 09:32:57;;;;;;;23.30;11.50;;;;;;;3.80;71.62;100539.59;105052;1258;74245;-60
2024/01/22 09:35:25;;;;;;;38.70;21.60;;;;;;;3.79;71.88;100534.15;109067;1254;138083;-61
2024/01/22 09:37:52;;;;;;;31.60;17.80;;;;;;;3.78;72.02;100540.19;109105;1257;71395;-61
2024/01/22 09:40:19;;;;;;;36.20;19.50;;;;;;;3.78;72.07;100532.71;105804;1256;139208;-61
2024/01/22 09:42:47;;;;;;;23.70;13.30;;;;;;;3.79;72.19;100518.70;104758;1263;61227;-71
2024/01/22 09:45:14;;;;;;;36.10;19.00;;;;;;;3.83;72.34;100505.70;104799;1257;75840;-70
2024/01/22 09:47:41;;;;;;;18.70;11.60;;;;;;;3.86;72.42;100496.49;105007;1259;138521;-70
2024/01/22 09:50:08;;;;;;;15.70;9.20;;;;;;;3.89;72.57;100485.52;109175;1254;71869;-69
2024/01/22 09:52:35;;;;;;;18.20;13.10;;;;;;;3.94;72.70;100479.34;109138;1256;138536;-69
2024/01/22 09:55:02;;;;;;;17.60;10.60;;;;;;;3.99;72.62;100468.11;108912;1255;59045;-71
2024/01/22 09:57:28;;;;;;;20.20;10.80;;;;;;;4.03;72.74;100463.06;108919;1256;73656;-70
2024/01/22 09:59:55;;;;;;;15.70;10.20;;;;;;;4.03;72.66;100460.30;108792;1256;137875;-70
2024/01/22 10:02:22;;;;;;;17.90;10.00;;;;;;;4.06;72.68;100446.38;109037;1255;72602;-70
2024/01/22 10:04:48;;;;;;;16.60;11.30;;;;;;;4.10;72.68;100446.38;109020;1256;138668;-62
2024/01/22 10:07:15;;;;;;;19.60;11.80;;;;;;;4.14;72.78;100443.59;109134;1256;60138;-70
2024/01/22 10:09:43;;;;;;;15.70;10.90;;;;;;;4.17;72.82;100444.29;109131;1256;74789;-71
2024/01/22 10:12:09;;;;;;;14.40;9.30;;;;;;;4.21;72.78;100435.96;109039;1255;138326;-70
2024/01/22 10:14:41;;;;;;;14.20;8.00;;;;;;;4.25;72.76;100430.23;109108;1256;71374;-70
2024/01/22 10:17:17;;;;;;;11.90;7.60;;;;;;;4.29;72.78;100418.24;109048;1254;137399;-69
2024/01/22 10:19:48;;;;;;;12.90;7.20;;;;;;;4.34;72.81;100408.02;106999;1257;61224;-70
2024/01/22 10:22:19;;;;;;;12.80;7.70;;;;;;;4.40;72.81;100402.91;109081;1255;138045;-69
2024/01/22 10:24:59;;;;;;;12.60;8.00;;;;;;;4.40;72.86;100397.55;109102;1254;66146;-70
2024/01/22 10:27:26;;;;;;;11.50;7.00;;;;;;;4.39;72.88;100382.71;109212;1254;72770;-70
2024/01/22 10:29:52;;;;;;;14.40;7.70;;;;;;;4.38;73.03;100377.44;109041;1254;138222;-69
2024/01/22 10:32:22;;;;;;;11.40;7.50;;;;;;;4.40;73.01;100375.11;108953;1254;59478;-69
2024/01/22 10:34:53;;;;;;;12.30;7.20;;;;;;;4.41;73.13;100364.55;109109;1254;138809;-70
2024/01/22 10:37:20;;;;;;;14.40;8.10;;;;;;;4.45;73.21;100355.22;109215;1254;68700;-70
2024/01/22 10:39:48;;;;;;;12.50;8.30;;;;;;;4.50;73.22;100353.31;109192;1254;72782;-71
2024/01/22 10:42:16;;;;;;;17.50;8.90;;;;;;;4.57;73.26;100351.00;109056;1257;138308;-70
2024/01/22 10:44:44;;;;;;;12.70;7.40;;;;;;;4.65;73.36;100348.23;109002;1254;59480;-71
2024/01/22 10:47:11;;;;;;;11.50;7.20;;;;;;;4.75;73.30;100348.11;108874;1254;137613;-71
2024/01/22 10:49:38;;;;;;;12.90;7.50;;;;;;;4.83;73.27;100350.88;109239;1254;66871;-70
2024/01/22 10:52:05;;;;;;;15.90;9.90;;;;;;;4.86;73.16;100350.48;109175;1254;72857;-70
2024/01/22 10:54:33;;;;;;;16.50;11.70;;;;;;;4.91;73.09;100347.71;105388;1259;138227;-70
2024/01/22 10:57:03;;;;;;;23.10;15.00;;;;;;;4.95;73.07;100344.42;105161;1254;60846;-70
2024/01/22 10:59:34;;;;;;;24.00;16.70;;;;;;;4.99;73.09;100344.59;108904;1254;138531;-71
2024/01/22 11:02:00;;;;;;;20.30;11.70;;;;;;;5.05;73.05;100339.79;109127;1256;67881;-70
2024/01/22 11:04:29;;;;;;;23.90;14.70;;;;;;;5.10;73.07;100333.02;108014;1256;138108;-69
2024/01/22 11:07:01;;;;;;;23.70;14.50;;;;;;;5.11;72.81;100326.63;109124;1256;59317;-71
2024/01/22 11:09:31;;;;;;;27.30;15.80;;;;;;;5.13;72.76;100322.35;109156;1256;59562;-71